createdAt,value
2022-08-11T04:03:54.249Z,5.40
2022-08-11T04:07:24.297Z,5.20
2022-08-11T04:10:35.780Z,5.33
2022-08-11T04:13:56.901Z,5.30
2022-08-11T04:17:08.498Z,5.30
2022-08-11T04:20:19.781Z,5.30
2022-08-11T04:23:08.505Z,5.30
2022-08-11T04:26:19.000Z,5.30
2022-08-11T04:29:09.421Z,5.27
2022-08-11T04:32:01.925Z,5.27
2022-08-11T04:34:59.997Z,5.30
2022-08-11T04:38:07.281Z,5.27
2022-08-11T04:41:14.322Z,5.30
2022-08-11T04:44:40.440Z,5.30
2022-08-11T04:48:10.748Z,5.23
2022-08-11T04:51:26.412Z,5.30
2022-08-11T04:54:28.760Z,5.27
2022-08-11T04:57:39.743Z,5.30
2022-08-11T05:00:28.799Z,5.30
2022-08-11T05:03:45.389Z,5.27
2022-08-11T05:07:00.734Z,5.30
2022-08-11T05:10:00.151Z,5.30
2022-08-11T05:13:19.978Z,5.30
2022-08-11T05:16:11.291Z,5.33
2022-08-11T05:19:06.451Z,5.33
2022-08-11T05:21:54.254Z,5.40
2022-08-11T05:24:49.584Z,5.37
2022-08-11T05:27:40.395Z,5.30
2022-08-11T05:30:29.054Z,5.40
2022-08-11T05:33:29.619Z,5.40
2022-08-11T05:36:12.639Z,5.30
2022-08-11T05:39:08.034Z,5.40
2022-08-11T05:41:54.281Z,5.40
2022-08-11T05:44:41.853Z,5.37
2022-08-11T05:47:28.413Z,5.40
2022-08-11T05:50:15.109Z,5.40
2022-08-11T05:53:09.270Z,5.40
2022-08-11T05:56:03.346Z,5.40
2022-08-11T05:58:42.378Z,5.40
2022-08-11T06:01:15.255Z,5.37
2022-08-11T06:04:03.866Z,5.40
2022-08-11T06:06:33.026Z,5.40
2022-08-11T06:09:02.801Z,5.33
2022-08-11T06:11:42.913Z,5.43
2022-08-11T06:14:15.912Z,5.37
2022-08-11T06:16:50.133Z,5.43
2022-08-11T06:19:23.421Z,5.40
2022-08-11T06:21:53.236Z,5.37
2022-08-11T06:24:22.622Z,5.80
2022-08-11T06:27:12.754Z,5.40
2022-08-11T06:29:55.177Z,5.40
2022-08-11T06:32:30.019Z,5.43
2022-08-11T06:35:13.034Z,5.33
2022-08-11T06:38:02.409Z,5.40
2022-08-11T06:40:42.887Z,5.40
2022-08-11T06:43:20.807Z,5.40
2022-08-11T06:46:03.122Z,5.33
2022-08-11T06:48:34.980Z,5.33
2022-08-11T06:51:13.920Z,5.43
2022-08-11T06:53:56.353Z,5.70
2022-08-11T06:57:18.608Z,5.40
2022-08-11T07:00:02.829Z,5.37
2022-08-11T07:02:37.888Z,5.33
2022-08-11T07:05:19.047Z,5.40
2022-08-11T07:08:58.676Z,5.40
2022-08-11T07:12:20.879Z,7.40
2022-08-11T07:15:11.699Z,5.33
2022-08-11T07:17:51.754Z,5.40
2022-08-11T07:20:38.828Z,5.50
2022-08-11T07:23:28.566Z,5.40
2022-08-11T07:26:19.436Z,5.37
2022-08-11T07:28:57.832Z,9.63
2022-08-11T07:31:33.411Z,7.13
2022-08-11T07:34:17.963Z,5.27
2022-08-11T07:36:54.046Z,5.40
2022-08-11T07:39:26.692Z,5.30
2022-08-11T07:41:59.279Z,6.27
2022-08-11T07:44:34.770Z,6.10
2022-08-11T07:47:22.965Z,5.80
2022-08-11T07:50:12.535Z,5.30
2022-08-11T07:52:42.404Z,5.57
2022-08-11T07:55:17.297Z,5.33
2022-08-11T07:58:15.551Z,5.30
2022-08-11T08:01:10.461Z,5.60
2022-08-11T08:04:02.687Z,5.30
2022-08-11T08:06:51.768Z,5.30
2022-08-11T08:09:41.393Z,7.60
2022-08-11T08:12:28.362Z,5.27
2022-08-11T08:15:16.100Z,5.30
2022-08-11T08:18:09.931Z,5.60
2022-08-11T08:20:49.750Z,5.30
2022-08-11T08:23:32.807Z,12.73
2022-08-11T08:26:26.999Z,5.30
2022-08-11T08:29:17.448Z,5.70
2022-08-11T08:31:46.611Z,5.27
2022-08-11T08:34:16.765Z,5.27
2022-08-11T08:36:46.885Z,5.27
2022-08-11T08:39:16.743Z,5.30
2022-08-11T08:41:46.709Z,5.20
2022-08-11T08:44:37.664Z,5.23
2022-08-11T08:47:09.179Z,5.20
2022-08-11T08:49:42.233Z,6.23
2022-08-11T08:52:32.016Z,5.17
2022-08-11T08:55:06.819Z,5.20
2022-08-11T08:57:40.338Z,5.23
2022-08-11T09:00:13.071Z,5.20
2022-08-11T09:02:43.467Z,5.07
2022-08-11T09:05:12.884Z,5.10
2022-08-11T09:07:43.258Z,5.73
2022-08-11T09:10:12.695Z,5.17
2022-08-11T09:12:43.498Z,5.20
2022-08-11T09:15:15.154Z,5.13
2022-08-11T09:17:50.082Z,5.13
2022-08-11T09:20:22.929Z,5.10
2022-08-11T09:26:21.748Z,5.17
2022-08-11T09:28:53.586Z,5.17
2022-08-11T09:31:22.976Z,5.10
2022-08-11T09:33:55.935Z,5.10
2022-08-11T09:36:42.253Z,5.40
2022-08-11T09:39:31.482Z,5.60
2022-08-11T09:42:03.290Z,5.20
2022-08-11T09:44:52.234Z,5.17
2022-08-11T09:47:24.419Z,5.10
2022-08-11T09:50:00.169Z,5.10
2022-08-11T09:52:33.774Z,5.10
2022-08-11T09:55:11.211Z,5.10
2022-08-11T09:57:59.794Z,5.13
2022-08-11T10:00:37.178Z,5.03
2022-08-11T10:03:11.369Z,5.00
2022-08-11T10:05:58.056Z,5.10
2022-08-11T10:08:33.206Z,5.03
2022-08-11T10:11:02.588Z,5.00
2022-08-11T10:14:33.130Z,5.03
2022-08-11T10:16:45.349Z,4.97
2022-08-11T10:19:14.520Z,5.00
2022-08-11T10:22:06.318Z,5.00
2022-08-11T10:24:53.370Z,4.83
2022-08-11T10:27:26.004Z,4.83
2022-08-11T10:30:15.294Z,4.80
2022-08-11T10:33:03.125Z,4.93
2022-08-11T10:35:37.728Z,4.77
2022-08-11T10:38:09.951Z,4.77
2022-08-11T10:40:41.401Z,4.80
2022-08-11T10:43:14.302Z,4.67
2022-08-11T10:46:16.623Z,4.60
2022-08-11T10:48:46.373Z,4.80
2022-08-11T10:51:14.845Z,4.77
2022-08-11T10:54:05.130Z,4.80
2022-08-11T10:56:56.194Z,4.70
2022-08-11T10:59:28.557Z,5.10
2022-08-11T11:01:58.256Z,4.60
2022-08-11T11:04:41.232Z,4.63
2022-08-11T11:07:24.591Z,4.57
2022-08-11T11:09:58.913Z,4.40
2022-08-11T11:12:52.505Z,4.47
2022-08-11T11:15:42.153Z,4.40
2022-08-11T11:18:15.929Z,4.80
2022-08-11T11:20:52.508Z,4.30
2022-08-11T11:23:27.967Z,4.17
2022-08-11T11:26:39.407Z,4.20
2022-08-11T11:29:43.246Z,4.20
2022-08-11T11:32:24.146Z,4.00
2022-08-11T11:35:17.832Z,4.00
2022-08-11T11:38:00.049Z,4.10
2022-08-11T11:40:34.555Z,3.80
2022-08-11T11:43:03.690Z,3.80
2022-08-11T11:45:32.735Z,3.63
2022-08-11T11:48:02.924Z,3.50
2022-08-11T11:50:35.590Z,3.60
2022-08-11T11:53:07.826Z,3.38
2022-08-11T11:55:38.027Z,3.30
2022-08-11T11:58:25.581Z,3.20
2022-08-11T12:01:12.280Z,3.08
2022-08-11T12:03:41.739Z,2.90
2022-08-11T12:06:14.068Z,2.70
2022-08-11T12:08:45.615Z,2.67
2022-08-11T12:11:32.065Z,2.60
2022-08-11T12:14:04.679Z,2.60
2022-08-11T12:16:42.583Z,2.58
2022-08-11T12:19:14.628Z,2.42
2022-08-11T12:22:04.902Z,2.42
2022-08-11T12:24:54.208Z,2.22
2022-08-11T12:27:28.575Z,2.20
2022-08-11T12:30:01.213Z,2.60
2022-08-11T12:32:33.221Z,2.55
2022-08-11T12:35:01.791Z,2.50
2022-08-11T12:37:36.333Z,2.40
2022-08-11T12:40:43.152Z,2.30
2022-08-11T12:43:39.700Z,2.13
2022-08-11T12:46:18.197Z,2.08
2022-08-11T12:49:06.929Z,2.10
2022-08-11T12:52:12.417Z,2.20
2022-08-11T12:54:57.684Z,2.10
2022-08-11T12:57:52.369Z,2.00
2022-08-11T13:00:40.165Z,2.10
2022-08-11T13:03:29.060Z,2.42
2022-08-11T13:06:02.520Z,2.60
2022-08-11T13:08:35.487Z,2.30
2022-08-11T13:11:23.223Z,2.20
2022-08-11T13:13:57.751Z,2.10
2022-08-11T13:16:32.443Z,1.92
2022-08-11T13:19:02.317Z,2.00
2022-08-11T13:21:32.047Z,1.90
2022-08-11T13:24:03.518Z,1.70
2022-08-11T13:26:46.888Z,1.70
2022-08-11T13:29:25.306Z,1.67
2022-08-11T13:31:56.221Z,1.55
2022-08-11T13:34:27.787Z,1.50
2022-08-11T13:36:59.286Z,1.50
2022-08-11T13:39:31.866Z,1.40
2022-08-11T13:42:02.796Z,1.48
2022-08-11T13:44:38.598Z,1.40
2022-08-11T13:47:10.855Z,1.50
2022-08-11T13:49:41.670Z,1.70
2022-08-11T13:52:14.619Z,1.60
2022-08-11T13:54:44.709Z,1.50
2022-08-11T13:58:07.305Z,1.50
2022-08-11T14:00:25.121Z,1.50
2022-08-11T14:02:58.832Z,1.42
2022-08-11T14:05:32.619Z,1.50
2022-08-11T14:08:03.581Z,1.52
2022-08-11T14:10:35.808Z,1.52
2022-08-11T14:13:27.345Z,1.50
2022-08-11T14:16:04.800Z,1.50
2022-08-11T14:18:35.932Z,1.40
2022-08-11T14:21:24.535Z,1.40
2022-08-11T14:23:57.844Z,1.48
2022-08-11T14:26:36.495Z,1.40
2022-08-11T14:29:10.495Z,1.50
2022-08-11T14:31:46.756Z,1.50
2022-08-11T14:34:16.101Z,1.55
2022-08-11T14:36:48.267Z,1.50
2022-08-11T14:39:19.444Z,1.50
2022-08-11T14:42:13.084Z,1.48
2022-08-11T14:45:03.444Z,1.55
2022-08-11T14:47:37.454Z,1.60
2022-08-11T14:50:10.917Z,1.60
2022-08-11T14:52:50.936Z,1.60
2022-08-11T14:55:39.218Z,1.60
2022-08-11T14:58:11.780Z,1.52
2022-08-11T15:00:42.372Z,1.52
2022-08-11T15:03:14.273Z,1.50
2022-08-11T15:05:57.003Z,1.55
2022-08-11T15:08:47.899Z,1.60
2022-08-11T15:11:41.578Z,1.65
2022-08-11T15:14:12.770Z,1.70
2022-08-11T15:17:02.461Z,1.67
2022-08-11T15:19:40.238Z,1.70
2022-08-11T15:22:28.247Z,1.60
2022-08-11T15:24:59.403Z,1.70
2022-08-11T15:27:49.930Z,1.70
2022-08-11T15:30:36.102Z,1.70
2022-08-11T15:33:29.372Z,1.70
2022-08-11T15:36:20.499Z,1.60
2022-08-11T15:38:56.224Z,1.70
2022-08-11T15:41:58.320Z,1.75
2022-08-11T15:45:03.950Z,1.70
2022-08-11T15:47:41.801Z,1.70
2022-08-11T15:50:17.064Z,1.70
2022-08-11T15:52:54.378Z,1.90
2022-08-11T15:55:24.537Z,1.80
2022-08-11T15:58:13.857Z,1.90
2022-08-11T16:01:09.034Z,1.90
2022-08-11T16:04:09.155Z,1.90
2022-08-11T16:06:46.337Z,2.00
2022-08-11T16:09:28.402Z,2.08
2022-08-11T16:12:07.495Z,2.10
2022-08-11T16:14:57.852Z,2.10
2022-08-11T16:17:32.007Z,2.10
2022-08-11T16:20:03.206Z,2.13
2022-08-11T16:22:39.288Z,2.10
2022-08-11T16:27:05.817Z,2.13
2022-08-11T16:28:05.657Z,2.15
2022-08-11T16:30:36.262Z,2.20
2022-08-11T16:33:47.973Z,2.20
2022-08-11T16:36:14.419Z,2.28
2022-08-11T16:38:44.800Z,2.40
2022-08-11T16:41:40.444Z,2.50
2022-08-11T16:44:32.799Z,2.60
2022-08-11T16:47:08.861Z,2.65
2022-08-11T16:49:39.761Z,2.63
2022-08-11T16:52:12.169Z,2.75
2022-08-11T16:54:44.363Z,2.88
2022-08-11T16:57:41.645Z,4.25
2022-08-11T17:00:15.714Z,3.05
2022-08-11T17:03:05.624Z,3.22
2022-08-11T17:05:55.148Z,3.35
2022-08-11T17:08:57.075Z,3.50
2022-08-11T17:11:47.577Z,3.70
2022-08-11T17:14:35.824Z,3.83
2022-08-11T17:17:12.122Z,4.17
2022-08-11T17:20:41.171Z,4.30
2022-08-11T17:22:55.854Z,4.40
2022-08-11T17:25:28.633Z,4.47
2022-08-11T17:27:57.983Z,4.60
2022-08-11T17:30:50.346Z,4.80
2022-08-11T17:33:38.191Z,5.30
2022-08-11T17:36:08.279Z,4.83
2022-08-11T17:38:37.572Z,4.87
2022-08-11T17:41:24.680Z,5.30
2022-08-11T17:44:13.349Z,4.80
2022-08-11T17:47:15.972Z,4.80
2022-08-11T17:49:48.152Z,4.87
2022-08-11T17:52:35.543Z,5.00
2022-08-11T17:55:51.019Z,5.07
2022-08-11T17:58:29.910Z,5.10
2022-08-11T18:01:08.654Z,5.20
2022-08-11T18:03:53.024Z,5.27
2022-08-11T18:06:34.909Z,5.33
2022-08-11T18:09:26.095Z,5.40
2022-08-11T18:12:13.776Z,5.50
2022-08-11T18:15:07.142Z,5.50
2022-08-11T18:17:54.505Z,5.47
2022-08-11T18:20:43.123Z,5.43
2022-08-11T18:23:46.041Z,5.53
2022-08-11T18:26:39.287Z,5.50
2022-08-11T18:29:26.504Z,5.57
2022-08-11T18:32:21.846Z,5.57
2022-08-11T18:35:12.188Z,5.63
2022-08-11T18:38:07.713Z,5.70
2022-08-11T18:40:55.288Z,5.70
2022-08-11T18:43:44.578Z,5.70
2022-08-11T18:46:35.212Z,5.60
2022-08-11T18:50:01.456Z,5.70
2022-08-11T18:52:38.723Z,5.70
2022-08-11T18:55:32.445Z,5.70
2022-08-11T18:58:24.303Z,5.63
2022-08-11T19:01:14.904Z,5.63
2022-08-11T19:04:10.610Z,5.70
2022-08-11T19:06:58.564Z,5.70
2022-08-11T19:09:48.478Z,5.70
2022-08-11T19:12:37.185Z,5.70
2022-08-11T19:15:24.617Z,5.70
2022-08-11T19:18:13.759Z,5.67
2022-08-11T19:21:02.808Z,5.67
2022-08-11T19:23:57.551Z,5.70
2022-08-11T19:26:43.776Z,5.70
2022-08-11T19:30:07.091Z,5.70
2022-08-11T19:32:41.153Z,5.70
2022-08-11T19:35:28.753Z,5.70
2022-08-11T19:38:17.198Z,5.67
2022-08-11T19:41:05.112Z,5.73
2022-08-11T19:43:52.514Z,5.70
2022-08-11T19:46:43.820Z,5.70
2022-08-11T19:49:31.521Z,5.67
2022-08-11T19:52:18.368Z,5.70
2022-08-11T19:55:06.524Z,5.70
2022-08-11T19:57:56.963Z,5.67
2022-08-11T20:00:43.164Z,5.67
2022-08-11T20:03:33.032Z,5.70
2022-08-11T20:06:24.617Z,5.63
2022-08-11T20:09:17.808Z,5.63
2022-08-11T20:12:08.909Z,5.60
2022-08-11T20:14:58.938Z,5.60
2022-08-11T20:17:48.258Z,5.63
2022-08-11T20:20:52.236Z,5.70
2022-08-11T20:23:38.521Z,5.70
2022-08-11T20:26:33.824Z,5.77
2022-08-11T20:29:20.983Z,5.63
2022-08-11T20:32:09.779Z,5.67
2022-08-11T20:34:58.893Z,5.60
2022-08-11T20:37:51.055Z,5.60
2022-08-11T20:40:42.456Z,5.60
2022-08-11T20:44:07.893Z,5.63
2022-08-11T20:46:39.318Z,5.63
2022-08-11T20:49:44.345Z,5.60
2022-08-11T20:52:37.261Z,5.63
2022-08-11T20:55:51.749Z,5.67
2022-08-11T20:59:01.070Z,5.60
